Terminal Aerodrome Forecast
Issued by NWS

Home | Current Version | Previous Version | Text Only | Print | Product List | Glossary On
Versions: 1 2 3 4 5 6 7 8 9 10 11 12 13 14 15 16 17 18 19 20 21 22
000
FTUS43 KAPX 202335
TAFMBL
TAF
KMBL 202335Z 2100/2124 13003KT P6SM OVC035
     FM210400 12003KT P6SM OVC028
     FM211600 17007KT P6SM OVC018
      AMD LTD TO CLD VIS AND WIND=

USA.gov is the U.S. government's official web portal to all federal, state and local government web resources and services.